createdAt,value
2019-05-20T00:01:45.381Z,98396.64
2019-05-20T00:04:13.795Z,98384.30
2019-05-20T00:06:42.209Z,98386.58
2019-05-20T00:09:10.625Z,98392.72
2019-05-20T00:11:39.033Z,98393.67
2019-05-20T00:14:07.518Z,98399.05
2019-05-20T00:16:36.225Z,98401.30
2019-05-20T00:19:04.651Z,98404.39
2019-05-20T00:21:33.145Z,98405.75
2019-05-20T00:24:01.565Z,98405.42
2019-05-20T00:26:29.979Z,98410.80
2019-05-20T00:28:58.730Z,98410.92
2019-05-20T00:31:27.149Z,98409.70
2019-05-20T00:33:55.562Z,98410.22
2019-05-20T00:36:23.968Z,98405.77
2019-05-20T00:39:10.607Z,98402.80
2019-05-20T00:41:38.997Z,98400.30
2019-05-20T00:44:07.445Z,98401.22
2019-05-20T00:46:35.838Z,98402.14
2019-05-20T00:49:04.331Z,98400.48
2019-05-20T00:51:32.748Z,98401.81
2019-05-20T00:54:01.183Z,98393.20
2019-05-20T00:56:29.586Z,98396.51
2019-05-20T00:58:58.008Z,98393.78
2019-05-20T01:01:26.451Z,98397.83
2019-05-20T01:03:54.878Z,98397.91
2019-05-20T01:06:23.300Z,98394.86
2019-05-20T01:08:51.693Z,98397.50
2019-05-20T01:11:20.187Z,98397.54
2019-05-20T01:13:48.891Z,98405.92
2019-05-20T01:16:17.310Z,98402.00
2019-05-20T01:18:45.736Z,98397.06
2019-05-20T01:21:14.137Z,98402.84
2019-05-20T01:23:42.557Z,98401.03
2019-05-20T01:26:10.961Z,98396.66
2019-05-20T01:28:39.355Z,98393.58
2019-05-20T01:31:07.803Z,98398.91
2019-05-20T01:33:36.205Z,98400.23
2019-05-20T01:36:05.743Z,98398.20
2019-05-20T01:38:34.518Z,98403.54
2019-05-20T01:41:02.926Z,98401.30
2019-05-20T01:43:31.367Z,98398.91
2019-05-20T01:45:59.785Z,98390.33
2019-05-20T01:48:28.188Z,98384.95
2019-05-20T01:50:56.622Z,98393.23
2019-05-20T01:53:25.025Z,98389.30
2019-05-20T01:55:53.435Z,98392.86
2019-05-20T01:58:21.862Z,98392.98
2019-05-20T02:00:50.268Z,98395.74
2019-05-20T02:03:31.022Z,98394.09
2019-05-20T02:05:48.970Z,98396.84
2019-05-20T02:08:17.621Z,98402.18
2019-05-20T02:10:46.056Z,98401.30
2019-05-20T02:13:14.459Z,98403.14
2019-05-20T02:15:50.740Z,98401.30
2019-05-20T02:18:19.419Z,98402.70
2019-05-20T02:20:47.841Z,98398.20
2019-05-20T02:23:16.833Z,98398.45
2019-05-20T02:25:47.355Z,98395.74
2019-05-20T02:28:15.817Z,98397.91
2019-05-20T02:30:44.318Z,98398.79
2019-05-20T02:33:13.070Z,98399.19
2019-05-20T02:35:41.756Z,98402.69
2019-05-20T02:38:10.157Z,98397.36
2019-05-20T02:40:38.602Z,98390.25
2019-05-20T02:43:07.019Z,98389.81
2019-05-20T02:45:35.447Z,98386.16
2019-05-20T02:48:03.914Z,98381.48
2019-05-20T02:50:32.337Z,98373.89
2019-05-20T02:53:00.738Z,98376.42
2019-05-20T02:55:29.140Z,98377.11
2019-05-20T02:57:57.582Z,98365.66
2019-05-20T03:00:25.997Z,98382.30
2019-05-20T03:02:54.431Z,98380.05
2019-05-20T03:05:22.846Z,98384.63
2019-05-20T03:07:51.269Z,98390.82
2019-05-20T03:10:19.705Z,98388.33
2019-05-20T03:12:48.117Z,98391.11
2019-05-20T03:15:16.604Z,98398.73
2019-05-20T03:17:45.035Z,98403.42
2019-05-20T03:20:13.577Z,98405.80
2019-05-20T03:22:42.151Z,98409.39
2019-05-20T03:25:10.797Z,98405.06
2019-05-20T03:27:39.286Z,98412.20
2019-05-20T03:30:09.435Z,98410.07
2019-05-20T03:32:37.866Z,98417.53
2019-05-20T03:35:07.661Z,98411.27
2019-05-20T03:37:36.099Z,98412.53
2019-05-20T03:40:07.706Z,98409.55
2019-05-20T03:42:36.197Z,98406.79
2019-05-20T03:45:05.548Z,98410.97
2019-05-20T03:47:33.988Z,98413.53
2019-05-20T03:50:02.361Z,98415.70
2019-05-20T03:52:30.803Z,98414.66
2019-05-20T03:54:59.208Z,98416.79
2019-05-20T03:57:27.619Z,98414.98
2019-05-20T03:59:56.026Z,98412.38
2019-05-20T04:02:24.453Z,98419.48
2019-05-20T04:05:02.020Z,98419.56
2019-05-20T04:07:23.274Z,98420.27
2019-05-20T04:09:51.911Z,98425.20
2019-05-20T04:12:20.594Z,98422.13
2019-05-20T04:14:49.021Z,98426.05
2019-05-20T04:17:17.424Z,98427.78
2019-05-20T04:19:45.858Z,98423.84
2019-05-20T04:22:14.258Z,98425.94
2019-05-20T04:24:42.674Z,98424.02
2019-05-20T04:27:11.101Z,98426.66
2019-05-20T04:29:39.511Z,98424.94
2019-05-20T04:32:07.913Z,98427.18
2019-05-20T04:34:36.410Z,98427.98
2019-05-20T04:37:04.870Z,98426.22
2019-05-20T04:39:33.298Z,98429.23
2019-05-20T04:42:05.977Z,98426.83
2019-05-20T04:44:31.847Z,98434.12
2019-05-20T04:47:00.266Z,98435.09
2019-05-20T04:49:28.698Z,98435.18
2019-05-20T04:51:57.087Z,98441.39
2019-05-20T04:54:25.540Z,98433.48
2019-05-20T04:56:53.915Z,98438.78
2019-05-20T04:59:22.588Z,98442.36
2019-05-20T05:01:51.014Z,98436.54
2019-05-20T05:04:19.404Z,98439.02
2019-05-20T05:06:47.840Z,98433.92
2019-05-20T05:09:16.296Z,98444.83
2019-05-20T05:11:44.695Z,98443.56
2019-05-20T05:14:13.177Z,98447.34
2019-05-20T05:16:41.618Z,98454.28
2019-05-20T05:19:10.028Z,98458.17
2019-05-20T05:21:38.518Z,98456.76
2019-05-20T05:24:06.942Z,98450.94
2019-05-20T05:26:35.422Z,98460.13
2019-05-20T05:29:04.202Z,98453.00
2019-05-20T05:31:32.652Z,98455.45
2019-05-20T05:34:01.053Z,98452.97
2019-05-20T05:36:29.458Z,98463.40
2019-05-20T05:38:57.878Z,98454.42
2019-05-20T05:41:26.365Z,98453.36
2019-05-20T05:43:54.762Z,98455.44
2019-05-20T05:46:23.199Z,98457.22
2019-05-20T05:48:51.611Z,98459.47
2019-05-20T05:51:21.201Z,98453.36
2019-05-20T05:53:49.593Z,98453.85
2019-05-20T05:56:18.031Z,98459.52
2019-05-20T05:58:46.535Z,98455.56
2019-05-20T06:01:14.944Z,98454.98
2019-05-20T06:03:43.341Z,98460.85
2019-05-20T06:06:13.325Z,98465.22
2019-05-20T06:08:42.263Z,98458.67
2019-05-20T06:11:10.690Z,98464.81
2019-05-20T06:13:39.090Z,98466.98
2019-05-20T06:16:07.510Z,98472.59
2019-05-20T06:18:35.912Z,98468.03
2019-05-20T06:21:04.699Z,98463.13
2019-05-20T06:23:33.335Z,98468.98
2019-05-20T06:26:01.785Z,98467.55
2019-05-20T06:28:30.213Z,98469.68
2019-05-20T06:30:58.651Z,98469.37
2019-05-20T06:33:27.205Z,98472.92
2019-05-20T06:35:55.615Z,98477.35
2019-05-20T06:38:35.339Z,98476.94
2019-05-20T06:41:05.624Z,98485.02
2019-05-20T06:43:34.097Z,98479.42
2019-05-20T06:46:02.526Z,98489.35
2019-05-20T06:48:30.917Z,98495.22
2019-05-20T06:50:59.348Z,98494.72
2019-05-20T06:53:28.126Z,98495.00
2019-05-20T06:55:56.560Z,98490.56
2019-05-20T06:58:24.958Z,98500.24
2019-05-20T07:00:53.393Z,98495.44
2019-05-20T07:03:21.844Z,98497.86
2019-05-20T07:05:50.252Z,98494.47
2019-05-20T07:08:19.227Z,98497.41
2019-05-20T07:10:48.413Z,98504.63
2019-05-20T07:13:17.487Z,98498.31
2019-05-20T07:15:46.502Z,98503.86
2019-05-20T07:18:14.902Z,98509.17
2019-05-20T07:20:44.136Z,98509.44
2019-05-20T07:23:12.726Z,98515.66
2019-05-20T07:25:41.189Z,98516.74
2019-05-20T07:28:09.798Z,98518.31
2019-05-20T07:30:38.557Z,98522.70
2019-05-20T07:33:08.120Z,98522.87
2019-05-20T07:35:37.402Z,98523.75
2019-05-20T07:38:06.832Z,98528.42
2019-05-20T07:40:36.289Z,98528.69
2019-05-20T07:43:05.505Z,98528.63
2019-05-20T07:45:35.327Z,98522.03
2019-05-20T07:48:04.779Z,98524.64
2019-05-20T07:50:36.083Z,98527.91
2019-05-20T07:53:06.418Z,98525.64
2019-05-20T07:55:37.894Z,98530.17
2019-05-20T07:58:08.466Z,98527.91
2019-05-20T08:00:37.277Z,98533.69
2019-05-20T08:05:47.353Z,98531.55
2019-05-20T08:08:15.840Z,98532.33
2019-05-20T08:10:44.251Z,98535.23
2019-05-20T08:13:12.748Z,98531.81
2019-05-20T08:15:41.158Z,98538.98
2019-05-20T08:18:09.816Z,98537.37
2019-05-20T08:20:38.271Z,98543.59
2019-05-20T08:23:06.676Z,98547.98
2019-05-20T08:25:35.377Z,98547.98
2019-05-20T08:28:03.851Z,98552.37
2019-05-20T08:30:37.265Z,98553.42
2019-05-20T08:34:56.354Z,98554.64
2019-05-20T08:37:24.752Z,98551.37
2019-05-20T08:39:53.177Z,98563.42
2019-05-20T08:42:21.581Z,98566.17
2019-05-20T08:44:49.996Z,98565.50
2019-05-20T08:47:18.413Z,98570.08
2019-05-20T08:49:47.079Z,98574.28
2019-05-20T08:52:15.664Z,98567.90
2019-05-20T08:54:46.769Z,98580.46
2019-05-20T08:57:15.193Z,98585.48
2019-05-20T08:59:43.586Z,98583.30
2019-05-20T09:02:11.988Z,98576.00
2019-05-20T09:04:40.406Z,98572.83
2019-05-20T09:07:08.792Z,98577.16
2019-05-20T09:09:37.272Z,98576.58
2019-05-20T09:12:05.911Z,98574.34
2019-05-20T09:14:34.308Z,98576.89
2019-05-20T09:17:03.036Z,98571.95
2019-05-20T09:19:31.427Z,98569.59
2019-05-20T09:21:59.833Z,98568.25
2019-05-20T09:24:28.259Z,98564.58
2019-05-20T09:26:56.659Z,98567.80
2019-05-20T09:29:25.424Z,98560.26
2019-05-20T09:31:54.167Z,98555.97
2019-05-20T09:34:22.865Z,98557.82
2019-05-20T09:36:51.333Z,98560.70
2019-05-20T09:39:19.736Z,98565.80
2019-05-20T09:41:48.167Z,98566.11
2019-05-20T09:44:16.562Z,98569.70
2019-05-20T09:46:45.654Z,98564.11
2019-05-20T09:49:14.074Z,98561.86
2019-05-20T09:51:42.566Z,98567.30
2019-05-20T09:54:10.940Z,98556.27
2019-05-20T09:56:39.340Z,98557.88
2019-05-20T09:59:07.772Z,98555.98
2019-05-20T10:01:39.861Z,98554.47
2019-05-20T10:04:06.357Z,98558.57
2019-05-20T10:06:34.779Z,98546.62
2019-05-20T10:09:03.857Z,98559.79
2019-05-20T10:11:32.276Z,98558.95
2019-05-20T10:14:00.676Z,98555.09
2019-05-20T10:16:29.092Z,98549.89
2019-05-20T10:18:57.490Z,98553.18
2019-05-20T10:21:25.899Z,98555.16
2019-05-20T10:23:54.313Z,98556.06
2019-05-20T10:26:22.740Z,98554.02
2019-05-20T10:28:51.166Z,98549.09
2019-05-20T10:31:19.564Z,98559.01
2019-05-20T10:33:48.042Z,98550.55
2019-05-20T10:36:16.457Z,98556.55
2019-05-20T10:38:57.343Z,98561.88
2019-05-20T10:41:15.017Z,98561.47
2019-05-20T10:43:43.409Z,98562.59
2019-05-20T10:46:11.895Z,98566.31
2019-05-20T10:48:40.299Z,98567.66
2019-05-20T10:51:10.479Z,98569.25
2019-05-20T10:53:38.954Z,98570.38
2019-05-20T10:56:07.406Z,98564.50
2019-05-20T10:58:35.820Z,98565.48
2019-05-20T11:01:04.245Z,98573.09
2019-05-20T11:03:33.000Z,98571.04
2019-05-20T11:06:01.400Z,98574.89
2019-05-20T11:08:29.818Z,98573.20
2019-05-20T11:10:58.222Z,98575.27
2019-05-20T11:13:26.711Z,98578.19
2019-05-20T11:15:55.131Z,98573.60
2019-05-20T11:18:23.548Z,98576.84
2019-05-20T11:20:51.948Z,98569.76
2019-05-20T11:23:20.376Z,98573.97
2019-05-20T11:25:49.121Z,98566.70
2019-05-20T11:28:17.552Z,98566.90
2019-05-20T11:30:46.094Z,98570.71
2019-05-20T11:33:14.515Z,98578.40
2019-05-20T11:35:43.089Z,98583.45
2019-05-20T11:38:11.714Z,98585.11
2019-05-20T11:40:40.084Z,98585.11
2019-05-20T11:43:08.481Z,98576.39
2019-05-20T11:45:36.900Z,98578.37
2019-05-20T11:48:05.307Z,98573.22
2019-05-20T11:50:33.702Z,98577.42
2019-05-20T11:53:02.201Z,98576.08
2019-05-20T11:55:30.643Z,98575.61
2019-05-20T11:58:14.618Z,98582.80
2019-05-20T12:00:29.212Z,98584.70
2019-05-20T12:02:57.638Z,98576.84
2019-05-20T12:05:26.034Z,98580.86
2019-05-20T12:07:54.441Z,98573.28
2019-05-20T12:10:23.173Z,98571.28
2019-05-20T12:12:51.666Z,98580.30
2019-05-20T12:15:21.692Z,98576.27
2019-05-20T12:17:50.085Z,98577.02
2019-05-20T12:20:18.638Z,98576.27
2019-05-20T12:22:47.103Z,98574.95
2019-05-20T12:25:15.633Z,98579.12
2019-05-20T12:27:43.986Z,98575.89
2019-05-20T12:30:12.865Z,98572.23
2019-05-20T12:32:41.233Z,98583.64
2019-05-20T12:35:11.256Z,98573.59
2019-05-20T12:37:39.650Z,98569.84
2019-05-20T12:40:08.833Z,98567.84
2019-05-20T12:42:37.647Z,98559.68
2019-05-20T12:45:08.114Z,98569.77
2019-05-20T12:47:36.599Z,98570.53
2019-05-20T12:50:06.453Z,98578.58
2019-05-20T12:52:34.856Z,98574.55
2019-05-20T12:55:08.561Z,98568.72
2019-05-20T12:57:33.560Z,98566.59
2019-05-20T13:00:01.984Z,98571.09
2019-05-20T13:02:30.406Z,98581.27
2019-05-20T13:04:58.799Z,98576.45
2019-05-20T13:07:27.265Z,98580.32
2019-05-20T13:09:55.681Z,98581.80
2019-05-20T13:12:24.072Z,98577.61
2019-05-20T13:14:52.469Z,98585.69
2019-05-20T13:17:20.886Z,98585.57
2019-05-20T13:19:49.371Z,98584.05
2019-05-20T13:22:18.069Z,98588.59
2019-05-20T13:24:46.477Z,98588.34
2019-05-20T13:27:14.892Z,98595.27
2019-05-20T13:29:43.305Z,98594.66
2019-05-20T13:32:11.695Z,98593.05
2019-05-20T13:34:40.113Z,98588.58
2019-05-20T13:37:08.512Z,98578.85
2019-05-20T13:39:38.566Z,98584.31
2019-05-20T13:42:06.968Z,98587.22
2019-05-20T13:44:35.363Z,98600.69
2019-05-20T13:47:03.976Z,98597.30
2019-05-20T13:49:32.377Z,98595.88
2019-05-20T13:52:01.336Z,98597.93
2019-05-20T13:54:29.860Z,98600.84
2019-05-20T13:56:58.290Z,98613.15
2019-05-20T13:59:26.696Z,98600.17
2019-05-20T14:01:55.094Z,98607.88
2019-05-20T14:04:23.579Z,98610.97
2019-05-20T14:06:52.005Z,98611.29
2019-05-20T14:09:20.395Z,98610.20
2019-05-20T14:11:48.803Z,98604.81
2019-05-20T14:14:17.469Z,98607.25
2019-05-20T14:16:45.875Z,98606.84
2019-05-20T14:19:14.297Z,98610.25
2019-05-20T14:21:42.716Z,98620.69
2019-05-20T14:24:11.119Z,98622.23
2019-05-20T14:26:39.567Z,98607.41
2019-05-20T14:29:07.943Z,98621.89
2019-05-20T14:31:36.350Z,98616.59
2019-05-20T14:34:04.771Z,98618.48
2019-05-20T14:36:39.977Z,98620.02
2019-05-20T14:39:05.272Z,98625.04
2019-05-20T14:41:33.682Z,98621.28
2019-05-20T14:44:02.195Z,98623.55
2019-05-20T14:46:30.578Z,98627.33
2019-05-20T14:49:02.167Z,98630.38
2019-05-20T14:51:29.154Z,98631.82
2019-05-20T14:53:57.535Z,98639.12
2019-05-20T14:56:25.967Z,98639.13
2019-05-20T14:58:55.748Z,98637.25
2019-05-20T15:01:24.304Z,98635.52
2019-05-20T15:03:52.725Z,98644.64
2019-05-20T15:06:21.118Z,98640.41
2019-05-20T15:08:49.553Z,98650.64
2019-05-20T15:11:17.953Z,98657.54
2019-05-20T15:13:46.389Z,98649.52
2019-05-20T15:16:14.772Z,98660.60
2019-05-20T15:18:43.196Z,98657.05
2019-05-20T15:21:11.597Z,98660.30
2019-05-20T15:23:40.086Z,98660.05
2019-05-20T15:26:08.430Z,98657.52
2019-05-20T15:28:36.887Z,98655.03
2019-05-20T15:31:05.314Z,98656.69
2019-05-20T15:33:33.720Z,98656.52
2019-05-20T15:36:02.159Z,98650.10
2019-05-20T15:38:30.571Z,98662.25
2019-05-20T15:40:58.978Z,98667.95
2019-05-20T15:43:27.387Z,98664.22
2019-05-20T15:45:55.791Z,98666.64
2019-05-20T15:48:24.216Z,98667.64
2019-05-20T15:50:52.609Z,98666.31
2019-05-20T15:53:21.007Z,98669.74
2019-05-20T15:55:49.453Z,98667.89
2019-05-20T15:58:17.896Z,98671.17
2019-05-20T16:00:46.295Z,98675.37
2019-05-20T16:03:14.734Z,98672.97
2019-05-20T16:05:43.147Z,98671.37
2019-05-20T16:08:11.563Z,98675.47
2019-05-20T16:10:40.325Z,98673.61
2019-05-20T16:13:08.738Z,98675.74
2019-05-20T16:15:37.137Z,98672.41
2019-05-20T16:18:05.551Z,98674.39
2019-05-20T16:20:33.955Z,98668.80
2019-05-20T16:23:02.670Z,98676.52
2019-05-20T16:25:31.460Z,98675.37
2019-05-20T16:27:59.847Z,98683.25
2019-05-20T16:30:28.247Z,98676.73
2019-05-20T16:32:56.680Z,98681.28
2019-05-20T16:35:25.078Z,98684.92
2019-05-20T16:37:53.477Z,98679.52
2019-05-20T16:40:21.889Z,98684.38
2019-05-20T16:42:50.298Z,98681.61
2019-05-20T16:45:19.557Z,98687.12
2019-05-20T16:47:48.219Z,98687.00
2019-05-20T16:50:18.352Z,98687.88
2019-05-20T16:52:46.754Z,98689.77
2019-05-20T16:55:15.888Z,98702.48
2019-05-20T16:57:44.302Z,98700.09
2019-05-20T17:00:29.952Z,98704.05
2019-05-20T17:02:43.531Z,98697.84
2019-05-20T17:05:12.083Z,98694.11
2019-05-20T17:07:40.502Z,98701.28
2019-05-20T17:10:09.147Z,98701.67
2019-05-20T17:12:37.585Z,98701.11
2019-05-20T17:15:06.241Z,98708.80
2019-05-20T17:17:34.632Z,98699.09
2019-05-20T17:20:03.272Z,98695.48
2019-05-20T17:22:31.708Z,98694.16
2019-05-20T17:25:00.122Z,98700.59
2019-05-20T17:27:28.595Z,98705.14
2019-05-20T17:29:57.016Z,98704.40
2019-05-20T17:32:25.409Z,98705.19
2019-05-20T17:34:53.823Z,98702.31
2019-05-20T17:37:22.251Z,98710.02
2019-05-20T17:39:50.660Z,98705.19
2019-05-20T17:42:19.169Z,98701.60
2019-05-20T17:44:47.597Z,98709.58
2019-05-20T17:47:16.081Z,98715.78
2019-05-20T17:49:44.479Z,98719.03
2019-05-20T17:52:12.906Z,98717.47
2019-05-20T17:54:41.303Z,98720.02
2019-05-20T17:57:09.704Z,98725.34
2019-05-20T17:59:38.137Z,98722.55
2019-05-20T18:02:08.256Z,98725.20
2019-05-20T18:04:37.011Z,98714.96
2019-05-20T18:07:05.508Z,98710.91
2019-05-20T18:09:35.548Z,98721.24
2019-05-20T18:12:04.033Z,98721.91
2019-05-20T18:14:32.438Z,98719.98
2019-05-20T18:17:01.097Z,98724.67
2019-05-20T18:19:29.492Z,98719.59
2019-05-20T18:21:57.908Z,98724.92
2019-05-20T18:24:26.314Z,98732.99
2019-05-20T18:26:54.723Z,98742.39
2019-05-20T18:29:23.130Z,98734.97
2019-05-20T18:31:51.689Z,98743.98
2019-05-20T18:34:20.302Z,98750.42
2019-05-20T18:36:48.725Z,98751.30
2019-05-20T18:39:17.128Z,98751.30
2019-05-20T18:41:45.549Z,98760.02
2019-05-20T18:44:13.959Z,98760.42
2019-05-20T18:46:42.347Z,98759.92
2019-05-20T18:49:11.015Z,98766.03
2019-05-20T18:51:39.430Z,98766.48
2019-05-20T18:54:09.116Z,98769.23
2019-05-20T18:56:37.537Z,98772.75
2019-05-20T18:59:05.973Z,98780.95
2019-05-20T19:01:46.050Z,98780.34
2019-05-20T19:04:04.664Z,98782.24
2019-05-20T19:06:33.091Z,98787.50
2019-05-20T19:09:01.500Z,98786.81
2019-05-20T19:11:29.909Z,98792.62
2019-05-20T19:13:58.381Z,98790.34
2019-05-20T19:16:26.777Z,98792.11
2019-05-20T19:18:55.281Z,98790.66
2019-05-20T19:21:23.691Z,98802.68
2019-05-20T19:23:52.374Z,98814.42
2019-05-20T19:26:24.849Z,98804.56
2019-05-20T19:28:51.500Z,98803.02
2019-05-20T19:31:19.967Z,98806.61
2019-05-20T19:33:48.399Z,98804.70
2019-05-20T19:36:16.857Z,98806.13
2019-05-20T19:38:45.633Z,98819.42
2019-05-20T19:41:14.029Z,98825.45
2019-05-20T19:43:42.784Z,98822.46
2019-05-20T19:46:11.256Z,98823.64
2019-05-20T19:48:39.774Z,98829.32
2019-05-20T19:51:08.532Z,98834.08
2019-05-20T19:53:36.961Z,98833.88
2019-05-20T19:56:05.360Z,98836.28
2019-05-20T19:58:33.759Z,98837.81
2019-05-20T20:01:02.185Z,98844.85
2019-05-20T20:03:30.593Z,98845.38
2019-05-20T20:05:59.001Z,98850.09
2019-05-20T20:08:27.419Z,98855.41
2019-05-20T20:10:56.085Z,98859.88
2019-05-20T20:13:24.504Z,98858.80
2019-05-20T20:15:52.980Z,98854.69
2019-05-20T20:18:21.382Z,98859.95
2019-05-20T20:20:49.868Z,98859.11
2019-05-20T20:23:18.355Z,98861.52
2019-05-20T20:25:46.786Z,98866.84
2019-05-20T20:28:15.181Z,98863.14
2019-05-20T20:30:43.600Z,98863.05
2019-05-20T20:33:12.003Z,98861.48
2019-05-20T20:35:40.416Z,98859.74
2019-05-20T20:38:08.822Z,98860.52
2019-05-20T20:40:37.242Z,98857.36
2019-05-20T20:43:05.637Z,98861.06
2019-05-20T20:45:34.050Z,98858.52
2019-05-20T20:48:02.454Z,98870.98
2019-05-20T20:50:30.891Z,98868.28
2019-05-20T20:52:59.289Z,98873.52
2019-05-20T20:55:27.720Z,98868.95
2019-05-20T20:57:56.109Z,98863.48
2019-05-20T21:00:24.858Z,98865.48
2019-05-20T21:02:54.015Z,98859.98
2019-05-20T21:05:22.459Z,98856.15
2019-05-20T21:07:51.762Z,98847.09
2019-05-20T21:10:20.446Z,98848.35
2019-05-20T21:12:48.856Z,98853.44
2019-05-20T21:15:17.280Z,98861.70
2019-05-20T21:17:45.677Z,98863.77
2019-05-20T21:20:14.244Z,98859.37
2019-05-20T21:22:42.647Z,98861.65
2019-05-20T21:25:11.216Z,98860.88
2019-05-20T21:27:39.608Z,98865.66
2019-05-20T21:30:09.268Z,98864.27
2019-05-20T21:32:37.774Z,98856.72
2019-05-20T21:35:06.614Z,98853.28
2019-05-20T21:37:35.012Z,98854.03
2019-05-20T21:40:03.708Z,98860.70
2019-05-20T21:42:32.115Z,98856.50
2019-05-20T21:45:00.517Z,98860.70
2019-05-20T21:47:28.936Z,98859.96
2019-05-20T21:49:57.344Z,98866.27
2019-05-20T21:52:25.832Z,98854.58
2019-05-20T21:54:54.229Z,98860.08
2019-05-20T21:57:22.886Z,98862.34
2019-05-20T21:59:51.298Z,98861.67
2019-05-20T22:02:19.724Z,98868.37
2019-05-20T22:04:48.397Z,98871.50
2019-05-20T22:07:16.798Z,98876.02
2019-05-20T22:09:46.210Z,98871.91
2019-05-20T22:12:14.617Z,98871.36
2019-05-20T22:14:43.034Z,98870.44
2019-05-20T22:17:11.492Z,98870.41
2019-05-20T22:19:39.894Z,98876.12
2019-05-20T22:22:18.827Z,98866.69
2019-05-20T22:24:47.231Z,98869.34
2019-05-20T22:27:15.638Z,98860.36
2019-05-20T22:29:44.049Z,98857.70
2019-05-20T22:32:12.755Z,98860.17
2019-05-20T22:34:52.725Z,98860.67
2019-05-20T22:37:11.300Z,98864.14
2019-05-20T22:39:39.694Z,98856.11
2019-05-20T22:42:08.580Z,98856.05
2019-05-20T22:44:36.908Z,98857.34
2019-05-20T22:47:05.307Z,98854.98
2019-05-20T22:49:33.971Z,98853.13
2019-05-20T22:52:02.374Z,98852.79
2019-05-20T22:54:30.768Z,98852.75
2019-05-20T22:56:59.168Z,98862.11
2019-05-20T22:59:27.598Z,98857.31
2019-05-20T23:01:56.265Z,98849.29
2019-05-20T23:04:24.674Z,98854.29
2019-05-20T23:06:53.316Z,98857.31
2019-05-20T23:09:21.732Z,98848.95
2019-05-20T23:11:50.146Z,98851.30
2019-05-20T23:14:18.558Z,98850.86
2019-05-20T23:16:46.969Z,98847.63
2019-05-20T23:19:15.380Z,98845.75
2019-05-20T23:21:43.770Z,98846.97
2019-05-20T23:24:12.193Z,98849.22
2019-05-20T23:26:40.659Z,98850.52
2019-05-20T23:29:09.078Z,98850.69
2019-05-20T23:31:37.481Z,98857.11
2019-05-20T23:34:12.627Z,98849.75
2019-05-20T23:36:36.007Z,98855.42
2019-05-20T23:39:07.422Z,98850.19
2019-05-20T23:41:36.200Z,98855.20
2019-05-20T23:44:04.605Z,98849.55
2019-05-20T23:46:32.998Z,98848.30
2019-05-20T23:49:01.413Z,98843.44
2019-05-20T23:51:29.820Z,98843.84
2019-05-20T23:53:58.218Z,98838.27
2019-05-20T23:56:26.615Z,98850.28
2019-05-20T23:58:55.041Z,98850.45
